Airfield :
LOGIN :

Register | Disclaimer

   EN    FR    IT 

 










Legend :    VFR   Marginal VFR   IFR   Intensive IFR   Very Intensive IFR
Visi :
Ceiling :
>= 8 km
>= 3000ft
5 to 8 km
1000 to 3000 ft
1500m to 5 km
500 to 1000 ft
800 to 1500m
200 to 500 ft
< 800m
< 200 ft
Symbols :   Thunderstorms  Fog  Heavy snow  Heavy precipitations  Wind > 20 kt
SIGMETs :     Misc.  Thunderstorms  Icing  Turbulence  Mountain Waves  Volcanic Ashes






- Airport Elevation : 102 ft
- IATA code : EXT


EGTE - Exeter

CURRENT METAR :
  • 131650Z 16008KT 130V190 CAVOK 24/14 Q1024

EXPIRED METARs :
  • 131620Z 15007KT 120V180 CAVOK 25/13 Q1024
  • 131550Z 14007KT 090V160 CAVOK 25/13 Q1025
  • 131520Z 14007KT 100V170 CAVOK 25/13 Q1025
  • 131450Z 16007KT 120V210 CAVOK 25/13 Q1025
  • 131420Z 15010KT CAVOK 25/14 Q1025

TAF TAF EGTE
Valid from the 13 at 15:00 until the 13 at 18:00 UTC


131354Z 1315/1318 17008KT 9999 FEW020



MET'MAP, your aeronautical weather chart ! - Copyright ORBIFLY December 2007 - Disclaimer

ORBIFLY MET'MAP TEAM :

Programming & Development : Alexandra Zaïnal
Concept & original design : Baudouin d'Aumeries
Assistance for programming : Marc-Olivier Méhu
Technical & hardware support : Manuel Goepfert

Contact : metmap@orbifly.com




SOURCES & CREDITS :

   NOAA